Terminal Aerodrome Forecast
Issued by NWS

Home | Current Version | Previous Version | Text Only | Print | Product List | Glossary On
Versions: 1 2 3 4 5 6 7 8 9 10 11 12 13 14 15 16 17 18 19 20 21 22 23 24
000
FTAK31 PAFA 241120
TAFAOT
TAF
PAOT 241120Z 2412/2512 09018KT P6SM VCSH FEW035 OVC050
     FM241800 09020G30KT 6SM -RASN BKN025 BKN035 OVC050
     FM250100 09025G35KT 2SM -RASN BR BKN015 BKN025 OVC035
     FM250700 11018KT P6SM SCT025 BKN050 OVC100=

USA.gov is the U.S. government's official web portal to all federal, state and local government web resources and services.